sensor_id;sensor_type;location;lat;lon;timestamp;pressure;altitude;pressure_sealevel;temperature
49557;BMP280;35462;45.048;7.666;2023-04-25T00:09:15;98018.66;;;19.59
49557;BMP280;35462;45.048;7.666;2023-04-25T00:24:19;98016.81;;;19.34
49557;BMP280;35462;45.048;7.666;2023-04-25T00:39:23;98000.75;;;19.08
49557;BMP280;35462;45.048;7.666;2023-04-25T00:54:27;98021.63;;;18.94
49557;BMP280;35462;45.048;7.666;2023-04-25T01:09:31;97997.03;;;18.70
49557;BMP280;35462;45.048;7.666;2023-04-25T01:24:35;98016.41;;;18.54
49557;BMP280;35462;45.048;7.666;2023-04-25T01:39:40;98019.72;;;18.43
49557;BMP280;35462;45.048;7.666;2023-04-25T01:54:44;98019.16;;;18.34
49557;BMP280;35462;45.048;7.666;2023-04-25T02:09:50;98037.81;;;18.23
49557;BMP280;35462;45.048;7.666;2023-04-25T02:24:55;98035.34;;;18.00
49557;BMP280;35462;45.048;7.666;2023-04-25T02:39:59;98015.03;;;17.54
49557;BMP280;35462;45.048;7.666;2023-04-25T02:55:03;98021.66;;;17.58
49557;BMP280;35462;45.048;7.666;2023-04-25T03:10:09;98026.16;;;17.32
49557;BMP280;35462;45.048;7.666;2023-04-25T03:25:14;98044.44;;;17.19
49557;BMP280;35462;45.048;7.666;2023-04-25T03:40:18;98045.47;;;17.07
49557;BMP280;35462;45.048;7.666;2023-04-25T03:55:40;98053.28;;;16.96
49557;BMP280;35462;45.048;7.666;2023-04-25T04:10:45;98044.78;;;16.69
49557;BMP280;35462;45.048;7.666;2023-04-25T04:25:49;98043.41;;;16.21
49557;BMP280;35462;45.048;7.666;2023-04-25T04:40:56;98063.72;;;16.42
49557;BMP280;35462;45.048;7.666;2023-04-25T04:56:09;98082.53;;;16.33
49557;BMP280;35462;45.048;7.666;2023-04-25T05:11:21;98099.47;;;16.30
49557;BMP280;35462;45.048;7.666;2023-04-25T05:26:34;98095.66;;;16.22
49557;BMP280;35462;45.048;7.666;2023-04-25T05:41:49;98092.09;;;16.16
49557;BMP280;35462;45.048;7.666;2023-04-25T05:57:19;98098.09;;;16.73
49557;BMP280;35462;45.048;7.666;2023-04-25T06:12:24;98097.13;;;17.76
49557;BMP280;35462;45.048;7.666;2023-04-25T06:27:29;98078.72;;;22.93
49557;BMP280;35462;45.048;7.666;2023-04-25T06:42:34;98074.06;;;25.93
49557;BMP280;35462;45.048;7.666;2023-04-25T06:57:57;98077.34;;;29.19
49557;BMP280;35462;45.048;7.666;2023-04-25T07:13:04;98059.13;;;30.58
49557;BMP280;35462;45.048;7.666;2023-04-25T07:28:08;98064.72;;;28.70
49557;BMP280;35462;45.048;7.666;2023-04-25T07:43:13;98059.47;;;26.57
49557;BMP280;35462;45.048;7.666;2023-04-25T07:58:29;98047.41;;;26.45
49557;BMP280;35462;45.048;7.666;2023-04-25T08:13:37;98035.53;;;26.07
49557;BMP280;35462;45.048;7.666;2023-04-25T08:28:41;98017.91;;;25.67
49557;BMP280;35462;45.048;7.666;2023-04-25T08:43:45;98021.13;;;25.79
49557;BMP280;35462;45.048;7.666;2023-04-25T08:58:51;98021.41;;;26.29
49557;BMP280;35462;45.048;7.666;2023-04-25T09:44:33;98027.59;;;25.04
49557;BMP280;35462;45.048;7.666;2023-04-25T09:59:39;98016.72;;;25.43
49557;BMP280;35462;45.048;7.666;2023-04-25T10:14:46;98018.19;;;25.31
49557;BMP280;35462;45.048;7.666;2023-04-25T10:45:02;97987.97;;;25.14
49557;BMP280;35462;45.048;7.666;2023-04-25T11:15:14;97975.53;;;25.18
49557;BMP280;35462;45.048;7.666;2023-04-25T11:30:19;97961.38;;;25.12
49557;BMP280;35462;45.048;7.666;2023-04-25T11:45:23;97978.88;;;25.11
49557;BMP280;35462;45.048;7.666;2023-04-25T12:00:27;97958.38;;;24.77
49557;BMP280;35462;45.048;7.666;2023-04-25T12:15:33;97947.00;;;24.66
49557;BMP280;35462;45.048;7.666;2023-04-25T12:45:49;97959.50;;;24.56
49557;BMP280;35462;45.048;7.666;2023-04-25T13:00:54;97948.22;;;24.39
49557;BMP280;35462;45.048;7.666;2023-04-25T13:15:58;97936.94;;;23.60
49557;BMP280;35462;45.048;7.666;2023-04-25T13:31:02;97940.28;;;23.84
49557;BMP280;35462;45.048;7.666;2023-04-25T13:46:06;97939.41;;;24.07
49557;BMP280;35462;45.048;7.666;2023-04-25T14:01:10;97939.78;;;24.30
49557;BMP280;35462;45.048;7.666;2023-04-25T14:16:14;97954.66;;;24.23
49557;BMP280;35462;45.048;7.666;2023-04-25T14:31:18;97948.53;;;24.23
49557;BMP280;35462;45.048;7.666;2023-04-25T14:46:22;97958.19;;;24.18
49557;BMP280;35462;45.048;7.666;2023-04-25T15:01:26;97958.84;;;23.93
49557;BMP280;35462;45.048;7.666;2023-04-25T15:16:31;97959.72;;;23.82
49557;BMP280;35462;45.048;7.666;2023-04-25T15:31:35;97954.97;;;23.70
49557;BMP280;35462;45.048;7.666;2023-04-25T15:46:39;97956.00;;;23.67
49557;BMP280;35462;45.048;7.666;2023-04-25T16:01:43;97986.06;;;23.64
49557;BMP280;35462;45.048;7.666;2023-04-25T16:16:49;97998.31;;;23.46
49557;BMP280;35462;45.048;7.666;2023-04-25T16:31:53;98003.06;;;23.40
49557;BMP280;35462;45.048;7.666;2023-04-25T16:46:57;98000.63;;;23.18
49557;BMP280;35462;45.048;7.666;2023-04-25T17:02:00;98008.59;;;23.06
49557;BMP280;35462;45.048;7.666;2023-04-25T17:17:05;98034.94;;;23.00
49557;BMP280;35462;45.048;7.666;2023-04-25T17:32:09;98027.19;;;22.91
49557;BMP280;35462;45.048;7.666;2023-04-25T17:47:13;98045.19;;;22.77
49557;BMP280;35462;45.048;7.666;2023-04-25T18:02:17;98070.59;;;22.63
49557;BMP280;35462;45.048;7.666;2023-04-25T18:17:21;98110.22;;;22.50
49557;BMP280;35462;45.048;7.666;2023-04-25T18:32:27;98150.31;;;22.30
49557;BMP280;35462;45.048;7.666;2023-04-25T18:47:31;98195.78;;;22.09
49557;BMP280;35462;45.048;7.666;2023-04-25T19:02:35;98224.47;;;22.01
49557;BMP280;35462;45.048;7.666;2023-04-25T19:17:39;98257.13;;;21.82
49557;BMP280;35462;45.048;7.666;2023-04-25T19:32:44;98279.44;;;21.60
49557;BMP280;35462;45.048;7.666;2023-04-25T19:47:48;98309.78;;;21.39
49557;BMP280;35462;45.048;7.666;2023-04-25T20:02:52;98329.13;;;21.32
49557;BMP280;35462;45.048;7.666;2023-04-25T20:17:56;98350.63;;;21.21
49557;BMP280;35462;45.048;7.666;2023-04-25T20:33:00;98378.47;;;21.07
49557;BMP280;35462;45.048;7.666;2023-04-25T20:48:04;98380.31;;;20.79
49557;BMP280;35462;45.048;7.666;2023-04-25T21:03:08;98389.47;;;20.56
49557;BMP280;35462;45.048;7.666;2023-04-25T21:18:12;98401.34;;;20.39
49557;BMP280;35462;45.048;7.666;2023-04-25T21:33:16;98415.88;;;20.22
49557;BMP280;35462;45.048;7.666;2023-04-25T21:48:20;98428.69;;;20.07
49557;BMP280;35462;45.048;7.666;2023-04-25T22:03:24;98441.22;;;19.90
49557;BMP280;35462;45.048;7.666;2023-04-25T22:18:28;98481.44;;;19.59
49557;BMP280;35462;45.048;7.666;2023-04-25T22:33:32;98503.97;;;19.27
49557;BMP280;35462;45.048;7.666;2023-04-25T22:48:36;98515.34;;;18.74
49557;BMP280;35462;45.048;7.666;2023-04-25T23:03:41;98537.97;;;18.44
49557;BMP280;35462;45.048;7.666;2023-04-25T23:18:46;98569.06;;;18.13
49557;BMP280;35462;45.048;7.666;2023-04-25T23:33:49;98567.16;;;17.81
49557;BMP280;35462;45.048;7.666;2023-04-25T23:48:53;98576.22;;;17.60
